createdAt,value
2018-09-05T00:02:17.981Z,101900.63
2018-09-05T00:04:46.174Z,101900.92
2018-09-05T00:07:14.438Z,101905.32
2018-09-05T00:09:42.679Z,101902.72
2018-09-05T00:12:10.899Z,101905.08
2018-09-05T00:14:39.327Z,101902.25
2018-09-05T00:17:07.526Z,101900.92
2018-09-05T00:19:35.749Z,101899.62
2018-09-05T00:22:04.054Z,101904.34
2018-09-05T00:24:32.241Z,101899.16
2018-09-05T00:27:00.457Z,101897.31
2018-09-05T00:29:28.732Z,101884.87
2018-09-05T00:31:56.959Z,101885.11
2018-09-05T00:34:25.251Z,101887.84
2018-09-05T00:36:53.527Z,101884.84
2018-09-05T00:39:21.757Z,101886.28
2018-09-05T00:41:50.069Z,101889.34
2018-09-05T00:44:18.298Z,101891.33
2018-09-05T00:46:46.557Z,101889.81
2018-09-05T00:49:14.730Z,101891.45
2018-09-05T00:51:42.980Z,101896.67
2018-09-05T00:54:11.186Z,101901.67
2018-09-05T00:56:39.464Z,101895.64
2018-09-05T00:59:07.714Z,101894.34
2018-09-05T01:01:35.997Z,101888.95
2018-09-05T01:04:04.223Z,101895.50
2018-09-05T01:06:32.435Z,101893.61
2018-09-05T01:09:00.630Z,101898.51
2018-09-05T01:11:29.009Z,101895.80
2018-09-05T01:13:57.201Z,101895.62
2018-09-05T01:16:25.460Z,101902.42
2018-09-05T01:18:53.711Z,101901.90
2018-09-05T01:21:21.907Z,101900.20
2018-09-05T01:23:50.165Z,101901.47
2018-09-05T01:26:18.533Z,101895.97
2018-09-05T01:28:46.813Z,101898.70
2018-09-05T01:31:15.081Z,101898.51
2018-09-05T01:33:43.305Z,101898.22
2018-09-05T01:36:18.983Z,101895.64
2018-09-05T01:38:47.233Z,101898.28
2018-09-05T01:41:15.970Z,101895.00
2018-09-05T01:43:44.567Z,101898.65
2018-09-05T01:46:12.944Z,101893.61
2018-09-05T01:48:43.195Z,101891.16
2018-09-05T01:51:11.457Z,101892.67
2018-09-05T01:53:39.763Z,101896.33
2018-09-05T01:56:08.101Z,101900.20
2018-09-05T01:58:36.355Z,101902.17
2018-09-05T02:01:04.555Z,101900.38
2018-09-05T02:03:32.879Z,101895.98
2018-09-05T02:06:01.050Z,101891.26
2018-09-05T02:08:29.600Z,101887.95
2018-09-05T02:10:57.864Z,101889.83
2018-09-05T02:13:26.190Z,101884.97
2018-09-05T02:15:54.456Z,101883.68
2018-09-05T02:18:22.703Z,101877.22
2018-09-05T02:20:50.970Z,101874.23
2018-09-05T02:23:19.377Z,101874.59
2018-09-05T02:25:47.629Z,101871.28
2018-09-05T02:28:15.803Z,101866.57
2018-09-05T02:30:44.007Z,101865.84
2018-09-05T02:33:12.298Z,101868.86
2018-09-05T02:35:40.784Z,101869.46
2018-09-05T02:38:09.043Z,101876.14
2018-09-05T02:40:37.384Z,101875.14
2018-09-05T02:43:05.634Z,101869.69
2018-09-05T02:45:33.855Z,101871.38
2018-09-05T02:48:02.121Z,101873.81
2018-09-05T02:50:30.382Z,101875.44
2018-09-05T02:52:58.589Z,101871.22
2018-09-05T02:55:44.425Z,101874.76
2018-09-05T02:58:12.687Z,101871.50
2018-09-05T03:00:40.915Z,101875.27
2018-09-05T03:03:09.222Z,101878.30
2018-09-05T03:05:37.451Z,101880.31
2018-09-05T03:08:05.707Z,101882.94
2018-09-05T03:10:34.045Z,101884.91
2018-09-05T03:13:02.188Z,101879.95
2018-09-05T03:15:30.647Z,101884.40
2018-09-05T03:17:58.828Z,101881.72
2018-09-05T03:20:27.071Z,101882.46
2018-09-05T03:22:55.300Z,101882.51
2018-09-05T03:25:23.517Z,101887.20
2018-09-05T03:27:51.862Z,101884.61
2018-09-05T03:30:20.167Z,101889.98
2018-09-05T03:32:48.655Z,101884.06
2018-09-05T03:35:16.899Z,101880.59
2018-09-05T03:37:45.093Z,101888.42
2018-09-05T03:40:13.296Z,101884.78
2018-09-05T03:42:41.532Z,101892.77
2018-09-05T03:45:09.739Z,101887.09
2018-09-05T03:47:38.129Z,101889.09
2018-09-05T03:50:06.907Z,101887.86
2018-09-05T03:52:35.139Z,101891.27
2018-09-05T03:55:03.376Z,101895.30
2018-09-05T03:57:31.909Z,101887.09
2018-09-05T04:00:00.171Z,101899.04
2018-09-05T04:02:28.606Z,101898.45
2018-09-05T04:04:58.225Z,101899.11
2018-09-05T04:07:26.741Z,101903.55
2018-09-05T04:09:55.113Z,101902.34
2018-09-05T04:12:23.296Z,101904.81
2018-09-05T04:14:51.814Z,101903.09
2018-09-05T04:17:20.197Z,101900.55
2018-09-05T04:19:48.912Z,101911.64
2018-09-05T04:22:17.271Z,101906.02
2018-09-05T04:24:45.455Z,101912.19
2018-09-05T04:27:13.932Z,101917.72
2018-09-05T04:29:42.287Z,101916.98
2018-09-05T04:32:10.705Z,101916.84
2018-09-05T04:34:38.930Z,101916.79
2018-09-05T04:37:07.206Z,101910.78
2018-09-05T04:39:35.418Z,101917.36
2018-09-05T04:42:03.872Z,101916.09
2018-09-05T04:44:32.159Z,101922.76
2018-09-05T04:47:00.430Z,101925.61
2018-09-05T04:49:28.809Z,101924.59
2018-09-05T04:51:57.085Z,101931.94
2018-09-05T04:54:25.437Z,101929.07
2018-09-05T04:56:53.745Z,101930.45
2018-09-05T04:59:21.920Z,101937.55
2018-09-05T05:01:50.214Z,101927.20
2018-09-05T05:04:18.489Z,101934.06
2018-09-05T05:06:46.743Z,101938.59
2018-09-05T05:09:14.977Z,101941.49
2018-09-05T05:11:43.356Z,101944.86
2018-09-05T05:14:12.119Z,101941.55
2018-09-05T05:16:40.471Z,101947.27
2018-09-05T05:19:08.724Z,101939.16
2018-09-05T05:21:37.011Z,101942.52
2018-09-05T05:24:05.352Z,101941.38
2018-09-05T05:26:33.696Z,101944.86
2018-09-05T05:29:02.531Z,101942.60
2018-09-05T05:31:30.743Z,101946.82
2018-09-05T05:33:58.965Z,101952.22
2018-09-05T05:36:27.327Z,101951.19
2018-09-05T05:38:55.770Z,101949.30
2018-09-05T05:41:24.027Z,101949.08
2018-09-05T05:43:52.353Z,101946.82
2018-09-05T05:46:20.714Z,101952.47
2018-09-05T05:48:49.105Z,101949.73
2018-09-05T05:51:17.264Z,101950.77
2018-09-05T05:53:45.519Z,101955.23
2018-09-05T05:56:13.843Z,101960.20
2018-09-05T05:58:42.302Z,101959.16
2018-09-05T06:01:10.734Z,101961.87
2018-09-05T06:03:38.941Z,101961.99
2018-09-05T06:06:07.288Z,101969.36
2018-09-05T06:08:35.841Z,101973.47
2018-09-05T06:11:40.298Z,101970.66
2018-09-05T06:14:08.915Z,101967.66
2018-09-05T06:16:37.284Z,101976.47
2018-09-05T06:19:05.820Z,101972.09
2018-09-05T06:21:34.449Z,101970.55
2018-09-05T06:24:03.495Z,101974.47
2018-09-05T06:26:32.032Z,101980.09
2018-09-05T06:29:00.796Z,101985.04
2018-09-05T06:31:29.133Z,101981.77
2018-09-05T06:33:57.790Z,101987.19
2018-09-05T06:36:26.266Z,101991.55
2018-09-05T06:38:54.819Z,101982.59
2018-09-05T06:41:23.255Z,101982.29
2018-09-05T06:43:51.756Z,101974.54
2018-09-05T06:46:20.370Z,101981.97
2018-09-05T06:48:49.134Z,101976.52
2018-09-05T06:51:17.711Z,101975.26
2018-09-05T06:53:46.431Z,101979.72
2018-09-05T06:56:15.157Z,101976.83
2018-09-05T06:58:43.640Z,101974.09
2018-09-05T07:01:12.377Z,101977.12
2018-09-05T07:03:41.513Z,101984.62
2018-09-05T07:06:09.931Z,101982.95
2018-09-05T07:08:38.490Z,101983.91
2018-09-05T07:11:07.039Z,101989.16
2018-09-05T07:13:35.558Z,101991.31
2018-09-05T07:16:04.171Z,101993.83
2018-09-05T07:18:32.713Z,101993.23
2018-09-05T07:21:05.685Z,101992.21
2018-09-05T07:23:29.785Z,102003.44
2018-09-05T07:25:58.299Z,102002.48
2018-09-05T07:28:26.801Z,102004.32
2018-09-05T07:30:55.426Z,101994.78
2018-09-05T07:33:23.783Z,102002.98
2018-09-05T07:35:52.334Z,102017.22
2018-09-05T07:38:21.030Z,102013.20
2018-09-05T07:40:49.859Z,102008.40
2018-09-05T07:43:18.436Z,102002.85
2018-09-05T07:45:47.483Z,102007.36
2018-09-05T07:48:16.040Z,102003.00
2018-09-05T07:50:44.637Z,102005.58
2018-09-05T07:53:13.102Z,102000.87
2018-09-05T07:55:41.678Z,102006.99
2018-09-05T07:58:10.255Z,102011.45
2018-09-05T08:00:38.723Z,102011.01
2018-09-05T08:03:07.227Z,102013.36
2018-09-05T08:05:35.674Z,102011.44
2018-09-05T08:08:04.204Z,102018.47
2018-09-05T08:10:32.719Z,102013.23
2018-09-05T08:13:01.312Z,102016.78
2018-09-05T08:15:29.940Z,102021.73
2018-09-05T08:17:58.397Z,102024.24
2018-09-05T08:20:26.903Z,102025.58
2018-09-05T08:22:55.498Z,102027.30
2018-09-05T08:25:24.144Z,102042.59
2018-09-05T08:27:52.703Z,102038.30
2018-09-05T08:30:21.534Z,102036.74
2018-09-05T08:32:50.096Z,102036.52
2018-09-05T08:35:18.972Z,102032.02
2018-09-05T08:37:47.486Z,102028.23
2018-09-05T08:40:15.850Z,102030.61
2018-09-05T08:42:44.442Z,102027.59
2018-09-05T08:45:19.806Z,102029.06
2018-09-05T08:47:48.327Z,102016.45
2018-09-05T08:50:16.805Z,102014.84
2018-09-05T08:52:45.732Z,102016.20
2018-09-05T08:55:14.826Z,102010.15
2018-09-05T08:57:43.232Z,102010.05
2018-09-05T09:00:11.948Z,102011.77
2018-09-05T09:02:40.501Z,102010.63
2018-09-05T09:05:09.751Z,102008.41
2018-09-05T09:07:38.233Z,102006.73
2018-09-05T09:10:08.822Z,102006.89
2018-09-05T09:12:37.467Z,102007.47
2018-09-05T09:15:07.012Z,102001.23
2018-09-05T09:17:35.471Z,102010.51
2018-09-05T09:20:04.265Z,102008.05
2018-09-05T09:22:32.746Z,102009.27
2018-09-05T09:25:01.481Z,102001.09
2018-09-05T09:27:31.610Z,102005.07
2018-09-05T09:30:00.386Z,102002.05
2018-09-05T09:32:29.043Z,102003.97
2018-09-05T09:34:57.684Z,102006.81
2018-09-05T09:37:26.366Z,101996.77
2018-09-05T09:39:54.887Z,101992.77
2018-09-05T09:42:23.695Z,101986.61
2018-09-05T09:44:52.336Z,101994.30
2018-09-05T09:47:20.930Z,101986.16
2018-09-05T09:49:49.508Z,101992.66
2018-09-05T09:52:22.456Z,101985.83
2018-09-05T09:54:52.488Z,101981.93
2018-09-05T09:57:21.624Z,101980.78
2018-09-05T09:59:50.873Z,101978.06
2018-09-05T10:02:24.535Z,101969.47
2018-09-05T10:04:58.423Z,101970.48
2018-09-05T10:07:32.133Z,101973.63
2018-09-05T10:11:03.548Z,101971.82
2018-09-05T10:13:37.462Z,101960.40
2018-09-05T10:17:09.905Z,101955.25
2018-09-05T10:19:38.625Z,101958.19
2018-09-05T10:22:07.276Z,101950.69
2018-09-05T10:24:35.913Z,101951.27
2018-09-05T10:27:04.609Z,101949.20
2018-09-05T10:29:33.517Z,101948.23
2018-09-05T10:32:02.781Z,101950.01
2018-09-05T10:34:31.467Z,101951.31
2018-09-05T10:36:59.972Z,101956.38
2018-09-05T10:39:28.475Z,101957.45
2018-09-05T10:41:56.900Z,101947.37
2018-09-05T10:44:25.435Z,101949.55
2018-09-05T10:46:53.880Z,101946.80
2018-09-05T10:49:22.690Z,101941.20
2018-09-05T10:51:54.776Z,101943.27
2018-09-05T10:54:24.369Z,101930.30
2018-09-05T10:56:52.964Z,101932.38
2018-09-05T10:59:21.610Z,101929.23
2018-09-05T11:01:50.272Z,101929.58
2018-09-05T11:04:18.829Z,101920.97
2018-09-05T11:06:47.491Z,101919.29
2018-09-05T11:09:16.018Z,101921.87
2018-09-05T11:11:44.501Z,101917.41
2018-09-05T11:14:12.977Z,101914.97
2018-09-05T11:16:41.589Z,101910.49
2018-09-05T11:19:10.480Z,101910.01
2018-09-05T11:21:39.301Z,101914.91
2018-09-05T11:24:08.234Z,101915.70
2018-09-05T11:26:37.128Z,101907.81
2018-09-05T11:29:06.049Z,101902.44
2018-09-05T11:31:34.726Z,101899.02
2018-09-05T11:34:03.609Z,101900.09
2018-09-05T11:36:32.329Z,101900.39
2018-09-05T11:39:00.854Z,101895.75
2018-09-05T11:41:29.544Z,101890.80
2018-09-05T11:43:58.088Z,101880.95
2018-09-05T11:46:26.625Z,101883.06
2018-09-05T11:49:30.703Z,101882.53
2018-09-05T12:16:22.691Z,101861.91
2018-09-05T12:19:07.122Z,101865.16
2018-09-05T12:21:50.008Z,101864.86
2018-09-05T12:30:21.912Z,101861.38
2018-09-05T12:33:04.119Z,101849.80
2018-09-05T12:35:41.485Z,101852.22
2018-09-05T12:38:28.377Z,101855.19
2018-09-05T12:41:16.744Z,101849.51
2018-09-05T13:29:09.136Z,101811.84
2018-09-05T13:34:47.823Z,101807.78
2018-09-05T13:37:25.508Z,101795.69
2018-09-05T14:29:31.825Z,101757.16
2018-09-05T14:32:20.404Z,101756.14
2018-09-05T14:35:09.541Z,101756.14
2018-09-05T14:37:54.137Z,101752.91
2018-09-05T14:40:41.141Z,101752.13
2018-09-05T14:46:27.868Z,101748.88
2018-09-05T14:55:31.894Z,101733.83
2018-09-05T14:58:19.141Z,101743.77
2018-09-05T15:10:30.087Z,101728.16
2018-09-05T15:13:06.233Z,101724.12
2018-09-05T15:21:16.430Z,101725.20
2018-09-05T15:23:47.347Z,101724.11
2018-09-05T15:26:21.624Z,101719.52
2018-09-05T15:28:51.969Z,101720.09
2018-09-05T15:31:26.528Z,101714.69
2018-09-05T15:36:31.314Z,101709.58
2018-09-05T15:41:45.604Z,101703.66
2018-09-05T15:44:16.078Z,101702.31
2018-09-05T15:46:53.376Z,101699.34
2018-09-05T15:49:35.233Z,101698.26
2018-09-05T15:52:13.345Z,101701.78
2018-09-05T15:54:45.048Z,101694.23
2018-09-05T15:57:19.183Z,101689.41
2018-09-05T15:59:50.081Z,101691.83
2018-09-05T16:02:46.539Z,101691.83
2018-09-05T16:05:15.493Z,101689.12
2018-09-05T16:16:28.424Z,101682.98
2018-09-05T16:24:51.383Z,101679.20
2018-09-05T16:27:26.778Z,101675.70
2018-09-05T16:29:58.670Z,101672.48
2018-09-05T16:32:40.243Z,101670.06
2018-09-05T16:35:19.156Z,101674.35
2018-09-05T16:37:57.034Z,101684.31
2018-09-05T16:40:28.056Z,101680.54
2018-09-05T16:45:53.557Z,101672.72
2018-09-05T16:48:50.371Z,101674.61
2018-09-05T16:51:31.222Z,101674.08
2018-09-05T16:54:20.499Z,101676.23
2018-09-05T16:57:29.157Z,101673.55
2018-09-05T17:00:09.627Z,101683.23
2018-09-05T17:03:14.838Z,101679.45
2018-09-05T17:05:53.542Z,101683.50
2018-09-05T17:08:47.666Z,101679.76
2018-09-05T17:38:03.858Z,101690.47
2018-09-05T17:40:44.628Z,101695.81
2018-09-05T17:43:24.562Z,101694.20
2018-09-05T17:46:04.539Z,101700.38
2018-09-05T17:48:51.660Z,101694.70
2018-09-05T17:51:22.454Z,101695.23
2018-09-05T17:53:51.527Z,101696.56
2018-09-05T17:56:20.252Z,101698.72
2018-09-05T17:58:55.530Z,101690.85
2018-09-05T18:01:31.058Z,101691.38
2018-09-05T18:04:13.058Z,101696.16
2018-09-05T18:06:42.787Z,101695.40
2018-09-05T18:09:12.359Z,101692.72
2018-09-05T18:11:44.766Z,101694.55
2018-09-05T18:14:24.970Z,101698.49
2018-09-05T18:17:14.929Z,101692.64
2018-09-05T18:19:57.835Z,101694.73
2018-09-05T18:47:02.076Z,101703.12
2018-09-05T19:07:23.490Z,101705.39
2018-09-05T19:09:58.013Z,101700.74
2018-09-05T19:12:31.654Z,101696.19
2018-09-05T19:15:06.527Z,101698.82
2018-09-05T19:17:39.947Z,101697.19
2018-09-05T19:20:13.613Z,101698.77
2018-09-05T19:25:14.020Z,101700.89
2018-09-05T19:27:51.541Z,101701.68
2018-09-05T19:30:26.682Z,101698.66
2018-09-05T19:32:59.837Z,101696.20
2018-09-05T19:35:35.711Z,101701.30
2018-09-05T19:38:09.371Z,101701.84
2018-09-05T19:40:43.729Z,101703.95
2018-09-05T19:43:17.859Z,101708.79
2018-09-05T19:45:52.932Z,101706.88
2018-09-05T19:48:28.825Z,101700.09
2018-09-05T19:51:02.117Z,101699.01
2018-09-05T19:53:31.817Z,101698.58
2018-09-05T19:56:07.054Z,101700.22
2018-09-05T19:58:41.185Z,101696.70
2018-09-05T20:01:13.294Z,101701.00
2018-09-05T20:03:52.630Z,101698.48
2018-09-05T20:06:23.505Z,101698.58
2018-09-05T20:08:57.494Z,101698.22
2018-09-05T20:11:37.565Z,101696.16
2018-09-05T20:14:13.896Z,101692.97
2018-09-05T20:16:53.143Z,101695.80
2018-09-05T20:19:52.038Z,101692.77
2018-09-05T20:22:50.145Z,101697.55
2018-09-05T20:25:41.087Z,101692.72
2018-09-05T20:28:26.664Z,101693.46
2018-09-05T20:31:15.771Z,101692.09
2018-09-05T20:34:14.424Z,101684.49
2018-09-05T20:36:53.550Z,101689.74
2018-09-05T20:39:43.599Z,101687.14
2018-09-05T20:42:24.091Z,101693.90
2018-09-05T20:45:17.005Z,101690.94
2018-09-05T21:16:55.621Z,101673.36
2018-09-05T21:19:36.812Z,101679.19
2018-09-05T21:22:05.927Z,101673.86
2018-09-05T21:24:42.144Z,101672.25
2018-09-05T21:27:10.855Z,101681.33
2018-09-05T21:29:40.378Z,101673.34
2018-09-05T21:32:11.562Z,101667.73
2018-09-05T21:34:41.636Z,101669.73
2018-09-05T22:04:27.575Z,101677.39
2018-09-05T22:07:12.573Z,101669.69
2018-09-05T22:10:02.686Z,101682.64
2018-09-05T22:19:48.546Z,101671.95
2018-09-05T22:28:28.242Z,101669.62
2018-09-05T22:31:27.823Z,101670.89
2018-09-05T22:34:22.664Z,101676.94
2018-09-05T22:37:07.101Z,101675.22
2018-09-05T22:39:46.374Z,101669.31
2018-09-05T22:42:26.938Z,101670.37
2018-09-05T22:45:12.966Z,101667.91
2018-09-05T22:47:59.700Z,101668.39
2018-09-05T22:51:04.989Z,101671.24
2018-09-05T22:54:59.903Z,101661.33
2018-09-05T23:00:54.264Z,101666.18
2018-09-05T23:06:04.423Z,101664.48
2018-09-05T23:08:50.875Z,101662.42
2018-09-05T23:11:42.356Z,101659.99
2018-09-05T23:14:34.672Z,101647.09
2018-09-05T23:17:19.487Z,101648.98
2018-09-05T23:20:23.634Z,101644.41
2018-09-05T23:23:12.405Z,101647.27
2018-09-05T23:26:10.749Z,101645.33
2018-09-05T23:28:51.192Z,101634.58
2018-09-05T23:31:31.935Z,101633.27
2018-09-05T23:34:10.087Z,101632.39
2018-09-05T23:36:56.032Z,101631.23
2018-09-05T23:39:30.931Z,101633.84
2018-09-05T23:42:10.867Z,101629.37
2018-09-05T23:44:52.455Z,101633.45
2018-09-05T23:47:29.581Z,101628.17
2018-09-05T23:50:06.556Z,101628.25
2018-09-05T23:52:41.563Z,101635.80
2018-09-05T23:55:22.937Z,101627.64
2018-09-05T23:58:03.032Z,101627.75
